Time;durP1;ratioP1;P1;durP2;ratioP2;P2;SDS_P1;SDS_P2;PMS_P1;PMS_P2;Temp;Humidity;BMP_temperature;BMP_pressure;BME280_temperature;BME280_humidity;BME280_pressure;Samples;Min_cycle;Max_cycle;Signal;HPM_P1;HPM_P2
2022/05/29 00:01:24;;;;;;;3.60;2.17;;;11.40;99.90;;;;;;5073952;28;20209;-72
2022/05/29 00:03:51;;;;;;;4.80;2.15;;;11.40;99.90;;;;;;5073714;28;20221;-72
2022/05/29 00:06:18;;;;;;;2.72;1.70;;;11.40;99.90;;;;;;5073623;28;20694;-72
2022/05/29 00:08:46;;;;;;;3.75;1.75;;;11.40;99.90;;;;;;5073176;28;20703;-72
2022/05/29 00:11:15;;;;;;;3.42;1.65;;;11.40;99.90;;;;;;5073498;28;20208;-72
2022/05/29 00:13:42;;;;;;;2.05;1.85;;;11.50;99.90;;;;;;5073640;28;20225;-72
2022/05/29 00:16:08;;;;;;;1.90;1.70;;;11.50;99.90;;;;;;5073466;28;20208;-72
2022/05/29 00:18:38;;;;;;;1.58;1.40;;;11.50;99.90;;;;;;5073168;28;20816;-72
2022/05/29 00:21:06;;;;;;;3.33;2.08;;;11.50;99.90;;;;;;5073387;28;20211;-72
2022/05/29 00:23:39;;;;;;;2.80;1.45;;;11.50;99.90;;;;;;5073587;28;20216;-72
2022/05/29 00:26:06;;;;;;;3.42;2.10;;;11.50;99.90;;;;;;5073365;28;20558;-72
2022/05/29 00:28:32;;;;;;;1.95;1.70;;;11.50;99.90;;;;;;5072880;28;20589;-72
2022/05/29 00:30:59;;;;;;;2.75;1.77;;;11.50;99.90;;;;;;5073397;28;20200;-72
2022/05/29 00:33:26;;;;;;;3.60;1.70;;;11.50;99.90;;;;;;5073090;28;20220;-72
2022/05/29 00:35:54;;;;;;;2.75;1.73;;;11.50;99.90;;;;;;5073452;28;20204;-72
2022/05/29 00:38:21;;;;;;;2.25;1.60;;;11.50;99.90;;;;;;5072478;28;20196;-72
2022/05/29 00:40:54;;;;;;;2.20;1.80;;;11.50;99.90;;;;;;5073295;28;20208;-72
2022/05/29 00:43:22;;;;;;;11.57;2.10;;;11.50;99.90;;;;;;5072918;28;20220;-72
2022/05/29 00:45:55;;;;;;;1.70;1.55;;;11.50;99.90;;;;;;5073365;28;20550;-72
2022/05/29 00:48:22;;;;;;;4.30;1.75;;;11.50;99.90;;;;;;5072235;28;20220;-72
2022/05/29 00:50:52;;;;;;;2.78;1.60;;;11.50;99.90;;;;;;5073256;28;20208;-73
2022/05/29 00:53:21;;;;;;;3.10;2.38;;;11.60;99.90;;;;;;5071718;28;20227;-72
2022/05/29 00:55:51;;;;;;;3.03;2.00;;;11.60;99.90;;;;;;5073069;28;20200;-72
2022/05/29 00:58:21;;;;;;;2.03;1.63;;;11.60;99.90;;;;;;5072212;28;20824;-72
2022/05/29 01:00:49;;;;;;;2.60;1.67;;;11.60;99.90;;;;;;5072899;28;20815;-72
2022/05/29 01:03:16;;;;;;;4.17;1.70;;;11.60;99.90;;;;;;5072524;28;20929;-72
2022/05/29 01:05:44;;;;;;;1.73;1.60;;;11.60;99.90;;;;;;5072828;28;20459;-72
2022/05/29 01:08:15;;;;;;;2.43;2.00;;;11.60;99.90;;;;;;5071809;28;20485;-71
2022/05/29 01:11:12;;;;;;;2.65;1.75;;;11.60;99.90;;;;;;5072775;28;20463;-72
2022/05/29 01:13:57;;;;;;;5.45;2.63;;;11.60;99.90;;;;;;5072748;28;20244;-72
2022/05/29 01:16:35;;;;;;;3.85;1.83;;;11.60;99.90;;;;;;5072493;28;20204;-71
2022/05/29 01:19:27;;;;;;;3.38;2.15;;;11.60;99.90;;;;;;5072222;28;20196;-72
2022/05/29 01:22:14;;;;;;;2.53;1.80;;;11.60;99.90;;;;;;5069861;28;20208;-72
2022/05/29 01:25:18;;;;;;;2.65;2.10;;;11.50;99.90;;;;;;5072437;28;20205;-72
2022/05/29 01:28:12;;;;;;;2.90;1.97;;;11.50;99.90;;;;;;5072214;28;20227;-71
2022/05/29 01:30:43;;;;;;;2.27;2.07;;;11.50;99.90;;;;;;5072384;28;20462;-72
2022/05/29 01:33:22;;;;;;;2.50;2.05;;;11.50;99.90;;;;;;5071899;28;20833;-72
2022/05/29 01:35:54;;;;;;;2.70;2.10;;;11.50;99.90;;;;;;5072206;28;20208;-72
2022/05/29 01:38:25;;;;;;;3.30;2.20;;;11.50;99.90;;;;;;5071375;28;20458;-72
2022/05/29 01:40:57;;;;;;;2.43;1.80;;;11.40;99.90;;;;;;5072103;28;20201;-72
2022/05/29 01:43:32;;;;;;;2.33;2.13;;;11.40;99.90;;;;;;5071871;28;20998;-72
2022/05/29 01:46:02;;;;;;;6.00;2.10;;;11.40;99.90;;;;;;5071856;28;20552;-72
2022/05/29 01:48:48;;;;;;;2.67;1.75;;;11.30;99.90;;;;;;5071386;28;20482;-72
2022/05/29 01:51:18;;;;;;;2.58;1.70;;;11.30;99.90;;;;;;5071671;28;20200;-71
2022/05/29 01:53:49;;;;;;;2.50;2.08;;;11.20;99.90;;;;;;5071877;28;20231;-72
2022/05/29 01:56:21;;;;;;;2.63;2.07;;;11.20;99.90;;;;;;5071662;28;20200;-72
2022/05/29 01:58:55;;;;;;;3.65;2.10;;;11.10;99.90;;;;;;5071037;28;20466;-72
2022/05/29 02:01:25;;;;;;;3.20;1.98;;;11.10;99.90;;;;;;5071366;28;20208;-71
2022/05/29 02:03:54;;;;;;;4.72;1.67;;;11.10;99.90;;;;;;5071368;28;20618;-71
2022/05/29 02:06:26;;;;;;;2.50;1.90;;;11.00;99.90;;;;;;5071245;28;20679;-71
2022/05/29 02:08:57;;;;;;;2.47;1.90;;;11.00;99.90;;;;;;5070949;28;20232;-72
2022/05/29 02:11:26;;;;;;;4.50;2.17;;;10.90;99.90;;;;;;5071417;28;20212;-72
2022/05/29 02:14:00;;;;;;;4.90;2.78;;;10.90;99.90;;;;;;5071330;28;20227;-72
2022/05/29 02:16:32;;;;;;;2.80;1.80;;;10.90;99.90;;;;;;5071404;28;20204;-72
2022/05/29 02:19:04;;;;;;;1.98;1.77;;;10.90;99.90;;;;;;5070773;28;20203;-72
2022/05/29 02:21:36;;;;;;;2.30;2.10;;;11.00;99.90;;;;;;5072141;28;20200;-72
2022/05/29 02:24:06;;;;;;;2.83;2.20;;;10.90;99.90;;;;;;5071092;28;20224;-72
2022/05/29 02:26:38;;;;;;;2.20;1.80;;;10.90;99.90;;;;;;5071265;28;20205;-72
2022/05/29 02:29:09;;;;;;;3.35;1.90;;;10.90;99.90;;;;;;5069866;28;20223;-72
2022/05/29 02:31:45;;;;;;;2.45;2.25;;;10.90;99.90;;;;;;5071177;28;20200;-72
2022/05/29 02:34:20;;;;;;;2.47;2.20;;;10.90;99.90;;;;;;5070926;28;20572;-72
2022/05/29 02:36:52;;;;;;;2.65;1.90;;;10.90;99.90;;;;;;5071224;28;20623;-72
2022/05/29 02:39:36;;;;;;;3.65;2.70;;;10.90;99.90;;;;;;5070170;28;21085;-72
2022/05/29 02:42:16;;;;;;;2.28;1.50;;;10.90;99.90;;;;;;5070822;28;20224;-71
2022/05/29 02:45:05;;;;;;;3.47;2.00;;;10.90;99.90;;;;;;5070838;28;20752;-71
2022/05/29 02:47:43;;;;;;;4.10;2.00;;;10.90;99.90;;;;;;5070933;28;20690;-71
2022/05/29 02:50:26;;;;;;;2.15;1.95;;;10.90;99.90;;;;;;5070018;28;20239;-71
2022/05/29 02:52:55;;;;;;;4.53;2.13;;;10.90;99.90;;;;;;5070851;28;20222;-71
2022/05/29 02:55:24;;;;;;;3.72;2.28;;;11.00;99.90;;;;;;5070782;28;20211;-71
2022/05/29 02:57:56;;;;;;;5.35;1.95;;;10.90;99.90;;;;;;5086729;22;20221;-93
2022/05/29 03:00:25;;;;;;;4.68;2.60;;;10.90;99.90;;;;;;5046405;28;20220;-93
2022/05/29 03:03:07;;;;;;;3.95;2.33;;;10.90;99.90;;;;;;5056299;28;20211;-93
2022/05/29 03:05:46;;;;;;;4.05;2.30;;;10.90;99.90;;;;;;5055218;28;20209;-93
2022/05/29 03:08:33;;;;;;;3.20;2.35;;;10.80;99.90;;;;;;5054503;28;20705;-93
2022/05/29 03:11:08;;;;;;;3.80;2.30;;;10.80;99.90;;;;;;5054881;28;20209;-91
2022/05/29 03:13:44;;;;;;;2.47;2.10;;;10.80;99.90;;;;;;5055125;28;20200;-91
2022/05/29 03:16:23;;;;;;;3.67;2.63;;;10.80;99.90;;;;;;5054302;28;20200;-91
2022/05/29 03:18:57;;;;;;;3.92;2.00;;;10.70;99.90;;;;;;5053963;28;20225;-91
2022/05/29 03:21:29;;;;;;;3.38;1.88;;;10.60;99.90;;;;;;5054399;28;20636;-91
2022/05/29 03:24:03;;;;;;;3.42;2.10;;;10.60;99.90;;;;;;5054201;28;20204;-91
2022/05/29 03:26:41;;;;;;;2.30;2.10;;;10.60;99.90;;;;;;5054746;28;20215;-91
2022/05/29 03:29:11;;;;;;;2.65;2.22;;;10.50;99.90;;;;;;5053824;28;20248;-91
2022/05/29 03:31:42;;;;;;;2.50;2.08;;;10.50;99.90;;;;;;5054937;28;20200;-91
2022/05/29 03:34:09;;;;;;;2.30;2.10;;;10.50;99.90;;;;;;5053919;28;20207;-91
2022/05/29 03:36:36;;;;;;;2.75;2.40;;;10.50;99.90;;;;;;5055049;28;20224;-91
2022/05/29 03:39:03;;;;;;;4.30;2.30;;;10.50;99.90;;;;;;5053776;28;20586;-92
2022/05/29 03:41:34;;;;;;;3.22;2.15;;;10.50;99.90;;;;;;5054632;28;20201;-92
2022/05/29 03:44:01;;;;;;;4.90;2.03;;;10.40;99.90;;;;;;5055544;28;20201;-91
2022/05/29 03:46:28;;;;;;;3.40;2.30;;;10.40;99.90;;;;;;5056249;28;20205;-91
2022/05/29 03:48:56;;;;;;;2.65;2.10;;;10.40;99.90;;;;;;5054547;28;20590;-91
2022/05/29 03:51:23;;;;;;;5.90;2.13;;;10.40;99.90;;;;;;5054587;28;20201;-91
2022/05/29 03:53:49;;;;;;;1.98;1.85;;;10.40;99.90;;;;;;5054290;28;20209;-92
2022/05/29 03:56:16;;;;;;;2.85;1.98;;;10.40;99.90;;;;;;5054323;28;20201;-91
2022/05/29 03:58:43;;;;;;;3.95;2.00;;;10.40;99.90;;;;;;5069040;28;20609;-91
2022/05/29 04:01:10;;;;;;;3.50;1.92;;;10.40;99.90;;;;;;5074287;28;20223;-91
2022/05/29 04:03:36;;;;;;;2.65;2.03;;;10.40;99.90;;;;;;5074343;28;20642;-91
2022/05/29 04:06:05;;;;;;;6.90;2.47;;;10.40;99.90;;;;;;5074303;28;20207;-91
2022/05/29 04:14:02;;;;;;;3.50;1.70;;;10.40;99.90;;;;;;5073361;28;20199;-91
2022/05/29 04:16:28;;;;;;;4.40;1.85;;;10.30;99.90;;;;;;5073117;28;20677;-92
2022/05/29 04:18:55;;;;;;;3.10;2.40;;;10.30;99.90;;;;;;5071777;28;20227;-92
2022/05/29 04:21:23;;;;;;;3.38;2.15;;;10.30;99.90;;;;;;5073243;28;20579;-91
2022/05/29 04:23:50;;;;;;;4.30;2.28;;;10.30;99.90;;;;;;5072942;28;20205;-91
2022/05/29 04:29:17;;;;;;;2.75;2.10;;;10.30;99.90;;;;;;5074300;28;20217;-91
2022/05/29 04:32:59;;;;;;;2.17;1.83;;;10.30;99.90;;;;;;5076829;28;20205;-91
2022/05/29 04:34:31;;;;;;;4.65;2.00;;;10.40;99.90;;;;;;5078607;28;20287;-92
2022/05/29 04:36:59;;;;;;;2.67;2.00;;;10.40;99.90;;;;;;5078222;28;20211;-91
2022/05/29 04:39:26;;;;;;;4.22;2.38;;;10.40;99.90;;;;;;5076896;28;20204;-91
2022/05/29 04:41:53;;;;;;;3.30;2.67;;;10.30;99.90;;;;;;5078711;28;20201;-91
2022/05/29 04:44:20;;;;;;;4.38;2.00;;;10.30;99.90;;;;;;5078805;28;20199;-91
2022/05/29 04:46:46;;;;;;;3.85;2.22;;;10.30;99.90;;;;;;5078316;28;20211;-91
2022/05/29 04:49:13;;;;;;;3.63;2.10;;;10.30;99.90;;;;;;5075701;28;20223;-91
2022/05/29 04:51:40;;;;;;;5.30;3.15;;;10.30;99.90;;;;;;5076356;28;20200;-91
2022/05/29 04:54:08;;;;;;;2.28;2.08;;;10.30;99.90;;;;;;5076263;28;20204;-91
2022/05/29 04:56:35;;;;;;;2.28;2.05;;;10.30;99.90;;;;;;5076098;28;20208;-91
2022/05/29 04:59:02;;;;;;;2.40;2.00;;;10.30;99.90;;;;;;5088954;28;20211;-93
2022/05/29 05:01:28;;;;;;;6.50;2.28;;;10.30;99.90;;;;;;5099718;28;20227;-92
2022/05/29 05:03:55;;;;;;;3.00;2.40;;;10.30;99.90;;;;;;5099365;28;20252;-92
2022/05/29 05:06:22;;;;;;;3.65;2.40;;;10.30;99.90;;;;;;5090890;28;20203;-92
2022/05/29 05:08:49;;;;;;;3.13;2.42;;;10.30;99.90;;;;;;5076121;28;20217;-91
2022/05/29 05:11:18;;;;;;;3.40;2.70;;;10.40;99.90;;;;;;5076232;28;20196;-91
2022/05/29 05:13:44;;;;;;;3.92;2.20;;;10.40;99.90;;;;;;5076269;28;20211;-92
2022/05/29 05:16:11;;;;;;;3.85;2.10;;;10.40;99.90;;;;;;5075683;28;20685;-91
2022/05/29 05:18:38;;;;;;;3.22;2.00;;;10.40;99.90;;;;;;5076208;28;20217;-91
2022/05/29 05:21:06;;;;;;;5.70;2.50;;;10.40;99.90;;;;;;5076032;28;20208;-91
2022/05/29 05:23:34;;;;;;;5.13;2.20;;;10.50;99.90;;;;;;5076151;28;20661;-91
2022/05/29 05:26:01;;;;;;;2.50;2.30;;;10.50;99.90;;;;;;5077670;28;20215;-91
2022/05/29 05:28:29;;;;;;;5.20;3.05;;;10.60;99.90;;;;;;5078784;28;20225;-91
2022/05/29 05:30:56;;;;;;;3.20;2.38;;;10.60;99.90;;;;;;5080441;28;20224;-91
2022/05/29 05:33:22;;;;;;;5.10;2.38;;;10.70;99.90;;;;;;5081964;28;20200;-91
2022/05/29 05:35:49;;;;;;;4.18;2.47;;;10.70;99.90;;;;;;5078137;28;20201;-91
2022/05/29 05:38:16;;;;;;;4.25;2.20;;;10.80;99.90;;;;;;5076043;28;20391;-91
2022/05/29 05:40:43;;;;;;;2.80;2.60;;;10.80;99.90;;;;;;5075654;28;20192;-91
2022/05/29 05:43:10;;;;;;;3.95;2.60;;;10.90;99.90;;;;;;5077738;28;20194;-91
2022/05/29 05:45:41;;;;;;;3.90;2.30;;;10.90;99.90;;;;;;5082000;28;20207;-91
2022/05/29 05:48:08;;;;;;;3.83;2.13;;;10.90;99.90;;;;;;5078415;28;20778;-91
2022/05/29 05:50:36;;;;;;;7.88;2.60;;;11.00;99.90;;;;;;5076691;28;20584;-92
2022/05/29 05:53:03;;;;;;;2.05;1.85;;;11.00;99.90;;;;;;5076808;28;20231;-91
2022/05/29 05:55:30;;;;;;;5.03;2.20;;;11.00;99.90;;;;;;5077117;28;20189;-91
2022/05/29 05:57:57;;;;;;;3.10;2.10;;;11.10;99.90;;;;;;5076634;28;20228;-93
2022/05/29 06:00:24;;;;;;;5.10;2.10;;;11.10;99.90;;;;;;5076334;28;20637;-92
2022/05/29 06:02:52;;;;;;;3.63;2.10;;;11.10;99.90;;;;;;5053962;28;20640;-92
2022/05/29 06:05:19;;;;;;;4.82;2.35;;;11.10;99.90;;;;;;5045726;28;20580;-91
2022/05/29 06:07:45;;;;;;;3.58;1.95;;;11.10;99.90;;;;;;5046264;28;20217;-92
2022/05/29 06:10:13;;;;;;;3.42;2.03;;;11.10;99.90;;;;;;5050669;28;20241;-91
2022/05/29 06:12:40;;;;;;;2.93;2.30;;;11.10;99.90;;;;;;5057588;28;20205;-92
2022/05/29 06:15:08;;;;;;;2.58;2.33;;;11.20;99.90;;;;;;5055821;28;20470;-91
2022/05/29 06:17:35;;;;;;;3.75;2.42;;;11.20;99.90;;;;;;5054831;28;20713;-91
2022/05/29 06:20:06;;;;;;;2.40;2.20;;;11.20;99.90;;;;;;5054329;28;20201;-91
2022/05/29 06:22:36;;;;;;;2.80;2.13;;;11.20;99.90;;;;;;5054524;28;20220;-91
2022/05/29 06:25:04;;;;;;;2.38;2.17;;;11.20;99.90;;;;;;5054266;28;20205;-91
2022/05/29 06:27:35;;;;;;;3.90;2.50;;;11.40;99.90;;;;;;5054237;28;20253;-91
2022/05/29 06:30:02;;;;;;;3.15;2.70;;;11.50;99.90;;;;;;5052333;28;20462;-90
2022/05/29 06:32:29;;;;;;;3.10;2.22;;;11.70;99.90;;;;;;5053877;28;20224;-90
2022/05/29 06:34:56;;;;;;;3.00;2.10;;;11.80;99.90;;;;;;5053838;28;20208;-90
2022/05/29 06:37:24;;;;;;;4.13;1.92;;;12.00;99.90;;;;;;5053831;28;20229;-90
2022/05/29 06:39:50;;;;;;;2.40;2.20;;;12.10;99.90;;;;;;5053936;28;20197;-91
2022/05/29 06:42:17;;;;;;;5.72;2.15;;;12.20;99.90;;;;;;5054887;28;20201;-91
2022/05/29 06:44:44;;;;;;;4.63;2.30;;;12.30;99.90;;;;;;5055479;28;20662;-90
2022/05/29 06:47:13;;;;;;;7.70;2.30;;;12.20;99.90;;;;;;5054566;28;20479;-90
2022/05/29 06:49:43;;;;;;;5.13;2.40;;;12.20;99.90;;;;;;5053354;28;20577;-90
2022/05/29 06:55:18;;;;;;;;;;;;;;;;;;;;;
2022/05/29 06:58:04;;;;;;;4.47;2.70;;;12.40;99.90;;;;;;5053457;28;20922;-91
2022/05/29 07:09:59;;;;;;;3.75;2.40;;;12.50;99.90;;;;;;5050529;28;20303;-92
2022/05/29 07:12:43;;;;;;;2.33;2.07;;;12.50;99.90;;;;;;5087550;28;20215;-92
2022/05/29 07:15:22;;;;;;;4.97;2.23;;;12.60;99.90;;;;;;5081656;28;20494;-91
2022/05/29 07:18:01;;;;;;;3.53;1.92;;;12.60;99.90;;;;;;5072992;28;20535;-91
2022/05/29 07:20:36;;;;;;;5.67;1.97;;;12.60;99.90;;;;;;5073987;28;20204;-91
2022/05/29 07:23:03;;;;;;;2.50;2.27;;;12.50;99.90;;;;;;5073334;28;20462;-92
2022/05/29 07:25:29;;;;;;;2.50;2.10;;;12.50;99.90;;;;;;5072455;28;20844;-92
2022/05/29 07:27:58;;;;;;;2.70;1.90;;;12.50;99.90;;;;;;5072822;28;20495;-94
2022/05/29 07:30:25;;;;;;;4.10;1.40;;;12.50;99.90;;;;;;5073029;28;20485;-91
2022/05/29 07:32:52;;;;;;;4.30;2.17;;;12.50;99.90;;;;;;5073912;28;20462;-92
2022/05/29 07:35:21;;;;;;;3.27;2.00;;;12.40;99.90;;;;;;5075998;28;20516;-92
2022/05/29 07:37:48;;;;;;;3.50;2.10;;;12.50;99.90;;;;;;5074678;28;20565;-90
2022/05/29 07:40:18;;;;;;;2.50;2.00;;;12.60;99.90;;;;;;5076876;28;20450;-90
2022/05/29 07:45:31;;;;;;;2.03;1.80;;;12.60;99.90;;;;;;5071500;28;20930;-89
2022/05/29 07:47:57;;;;;;;3.83;2.20;;;12.60;99.90;;;;;;5072700;28;20869;-90
2022/05/29 07:50:25;;;;;;;4.33;2.33;;;12.70;99.90;;;;;;5071985;28;20489;-89
2022/05/29 07:52:54;;;;;;;2.70;2.20;;;12.70;99.90;;;;;;5071572;28;20528;-90
2022/05/29 07:55:36;;;;;;;5.00;2.43;;;12.80;99.90;;;;;;5072599;28;20454;-91
2022/05/29 07:58:03;;;;;;;5.40;2.47;;;12.90;99.90;;;;;;5071092;28;20496;-90
2022/05/29 08:01:12;;;;;;;3.13;2.30;;;13.00;99.90;;;;;;5071749;28;20459;-90
2022/05/29 08:03:39;;;;;;;3.30;2.10;;;13.00;99.90;;;;;;5095551;28;20560;-91
2022/05/29 08:06:06;;;;;;;3.00;2.03;;;13.10;99.90;;;;;;5098614;28;20434;-92
2022/05/29 08:08:33;;;;;;;3.50;2.07;;;13.20;99.90;;;;;;5097383;28;20466;-91
2022/05/29 08:11:01;;;;;;;3.70;1.97;;;13.00;99.80;;;;;;5090584;28;20844;-91
2022/05/29 08:13:35;;;;;;;5.47;2.40;;;12.90;99.90;;;;;;5073640;28;20466;-90
2022/05/29 08:16:04;;;;;;;2.97;2.20;;;12.70;99.90;;;;;;5056196;28;20458;-90
2022/05/29 08:18:31;;;;;;;4.30;2.30;;;12.70;99.90;;;;;;5054980;28;20479;-90
2022/05/29 08:20:58;;;;;;;5.30;2.20;;;12.80;99.90;;;;;;5055770;28;20486;-90
2022/05/29 08:23:26;;;;;;;7.27;2.40;;;12.70;99.90;;;;;;5055939;28;20976;-90
2022/05/29 08:31:24;;;;;;;8.00;2.80;;;12.70;99.90;;;;;;5059024;28;20470;-91
2022/05/29 08:43:03;;;;;;;4.20;2.90;;;12.30;99.90;;;;;;5032432;28;20460;-93
2022/05/29 08:45:34;;;;;;;3.30;2.57;;;12.10;99.90;;;;;;5054309;28;20447;-91
2022/05/29 08:48:04;;;;;;;5.03;2.30;;;12.00;99.90;;;;;;5053454;28;20475;-91
2022/05/29 08:50:40;;;;;;;4.10;2.00;;;11.90;99.90;;;;;;5053959;28;20826;-91
2022/05/29 08:53:12;;;;;;;3.20;2.15;;;11.70;99.90;;;;;;5053612;28;20201;-91
2022/05/29 08:55:48;;;;;;;7.03;3.40;;;11.70;99.90;;;;;;5062284;28;20203;-89
2022/05/29 08:58:25;;;;;;;4.85;2.80;;;11.50;99.90;;;;;;5055374;28;20604;-89
2022/05/29 09:01:11;;;;;;;3.30;2.80;;;11.50;99.90;;;;;;5053871;28;20201;-89
2022/05/29 09:04:20;;;;;;;3.65;2.45;;;11.40;99.90;;;;;;5052581;28;20201;-89
2022/05/29 09:06:53;;;;;;;2.90;2.20;;;11.40;99.90;;;;;;5043839;28;20205;-91
2022/05/29 09:09:46;;;;;;;2.87;2.00;;;11.40;99.90;;;;;;5056607;28;20237;-93
2022/05/29 09:12:25;;;;;;;5.65;2.80;;;11.40;99.90;;;;;;5056526;28;20463;-92
2022/05/29 09:15:24;;;;;;;8.20;2.40;;;11.30;99.90;;;;;;5052383;28;20254;-91
2022/05/29 09:18:07;;;;;;;5.93;3.10;;;11.30;99.90;;;;;;5054396;28;20612;-92
2022/05/29 09:20:42;;;;;;;4.65;2.17;;;11.30;99.90;;;;;;5054031;28;20272;-91
2022/05/29 09:23:17;;;;;;;3.25;2.25;;;11.30;99.90;;;;;;5054325;28;20259;-92
2022/05/29 09:25:47;;;;;;;5.20;2.80;;;11.30;99.90;;;;;;5053846;28;20205;-91
2022/05/29 09:28:19;;;;;;;6.10;2.80;;;11.40;99.90;;;;;;5053227;28;20217;-91
2022/05/29 09:30:46;;;;;;;3.55;2.28;;;11.50;99.90;;;;;;5052973;28;20678;-91
2022/05/29 09:33:19;;;;;;;5.63;2.30;;;11.70;99.90;;;;;;5054588;28;20212;-91
2022/05/29 09:35:53;;;;;;;2.53;1.60;;;11.80;99.90;;;;;;5054029;28;20511;-92
2022/05/29 09:38:27;;;;;;;3.37;1.80;;;12.10;99.90;;;;;;5053632;28;20479;-92
2022/05/29 09:40:59;;;;;;;2.00;1.47;;;12.60;99.90;;;;;;5056294;28;20484;-91
2022/05/29 09:43:29;;;;;;;4.43;1.60;;;13.00;99.10;;;;;;5058389;28;20451;-90
2022/05/29 09:51:50;;;;;;;3.40;1.63;;;13.80;99.20;;;;;;5058993;28;20470;-92
2022/05/29 09:54:26;;;;;;;2.70;2.20;;;14.10;98.80;;;;;;5057718;28;21009;-93
2022/05/29 09:57:01;;;;;;;1.57;1.40;;;14.30;98.30;;;;;;5059420;28;20451;-92
2022/05/29 09:59:28;;;;;;;1.43;1.33;;;14.60;97.90;;;;;;5058452;28;21074;-92
2022/05/29 10:02:03;;;;;;;2.20;1.60;;;15.10;98.70;;;;;;5057446;28;20558;-92
2022/05/29 10:04:44;;;;;;;3.73;2.00;;;15.30;96.70;;;;;;5062607;28;20515;-93
2022/05/29 10:07:29;;;;;;;4.23;1.73;;;15.20;96.80;;;;;;5068036;28;20467;-93
2022/05/29 10:09:59;;;;;;;3.60;1.87;;;15.20;96.20;;;;;;5059769;28;20828;-91
2022/05/29 10:12:38;;;;;;;3.87;1.70;;;15.10;96.40;;;;;;5051144;28;21003;-91
2022/05/29 10:15:11;;;;;;;2.20;1.67;;;14.80;95.70;;;;;;5051166;28;20467;-92
2022/05/29 10:17:38;;;;;;;2.77;1.70;;;14.60;95.30;;;;;;5053080;28;20542;-91
2022/05/29 10:20:26;;;;;;;4.40;1.63;;;14.40;95.50;;;;;;5052456;28;20463;-92
2022/05/29 10:22:55;;;;;;;2.67;2.10;;;14.10;96.60;;;;;;5053468;28;20460;-90
2022/05/29 10:25:26;;;;;;;2.33;1.80;;;13.90;96.70;;;;;;5053048;28;20463;-90
2022/05/29 10:27:55;;;;;;;6.20;2.27;;;13.80;97.40;;;;;;5052660;28;20483;-91
2022/05/29 10:30:32;;;;;;;4.50;1.80;;;13.60;98.00;;;;;;5053291;28;20501;-92
2022/05/29 10:33:07;;;;;;;5.60;2.00;;;13.50;98.90;;;;;;5052807;28;20454;-91
2022/05/29 10:35:36;;;;;;;2.37;2.00;;;13.30;99.80;;;;;;5053145;28;20554;-91
2022/05/29 10:38:28;;;;;;;3.70;2.20;;;13.10;99.90;;;;;;5048340;28;20487;-90
2022/05/29 10:40:58;;;;;;;4.27;2.27;;;12.90;99.80;;;;;;5052786;28;20447;-92
2022/05/29 10:43:50;;;;;;;4.37;2.33;;;12.60;99.90;;;;;;5051963;28;20520;-92
2022/05/29 10:46:18;;;;;;;3.60;2.30;;;12.60;99.90;;;;;;5015323;28;20462;-91
2022/05/29 10:49:24;;;;;;;2.17;1.60;;;12.70;99.90;;;;;;5052222;28;20976;-92
2022/05/29 10:52:05;;;;;;;5.30;2.00;;;12.60;99.90;;;;;;5050668;28;20533;-91
2022/05/29 10:54:48;;;;;;;4.00;2.13;;;12.60;99.90;;;;;;5049735;28;20463;-91
2022/05/29 10:57:39;;;;;;;2.90;2.07;;;12.60;99.90;;;;;;5052624;28;20502;-92
2022/05/29 11:00:14;;;;;;;1.85;1.73;;;12.50;99.90;;;;;;5053085;28;20466;-92
2022/05/29 11:03:21;;;;;;;3.57;2.40;;;12.50;99.90;;;;;;5052246;28;20194;-91
2022/05/29 11:06:14;;;;;;;1.93;1.80;;;12.50;99.90;;;;;;5051618;28;20542;-92
2022/05/29 11:08:53;;;;;;;3.00;1.60;;;12.60;99.90;;;;;;5055742;28;20480;-92
2022/05/29 11:11:31;;;;;;;2.60;1.93;;;12.70;99.90;;;;;;5051541;28;20494;-91
2022/05/29 11:14:32;;;;;;;3.33;2.23;;;12.70;99.90;;;;;;5050709;28;20475;-91
2022/05/29 11:17:07;;;;;;;3.87;1.70;;;12.90;99.90;;;;;;5050195;28;20459;-91
2022/05/29 11:20:25;;;;;;;3.50;1.77;;;13.30;99.90;;;;;;5049279;28;20458;-89
2022/05/29 11:23:28;;;;;;;2.47;1.60;;;13.60;99.90;;;;;;5044728;28;20895;-92
2022/05/29 11:26:05;;;;;;;1.83;1.30;;;14.00;98.90;;;;;;5050581;28;20475;-91
2022/05/29 11:28:54;;;;;;;2.40;1.13;;;14.10;98.40;;;;;;5057216;28;20475;-90
2022/05/29 11:38:01;;;;;;;1.70;1.50;;;14.30;97.80;;;;;;5059268;23;20499;-71
2022/05/29 11:40:32;;;;;;;2.13;1.37;;;14.50;99.00;;;;;;5061849;28;20455;-71
2022/05/29 11:43:05;;;;;;;2.40;1.10;;;14.70;98.40;;;;;;5050257;28;20489;-71
2022/05/29 11:51:22;;;;;;;1.93;1.47;;;15.10;97.40;;;;;;5070684;28;20587;-71
2022/05/29 11:53:54;;;;;;;2.43;1.40;;;15.00;96.20;;;;;;5069998;28;20500;-72
2022/05/29 11:56:29;;;;;;;1.70;1.30;;;14.90;96.80;;;;;;5070995;28;20450;-70
2022/05/29 11:59:02;;;;;;;1.40;1.30;;;14.90;96.80;;;;;;5069192;28;20494;-71
2022/05/29 12:01:35;;;;;;;1.90;1.53;;;14.90;96.60;;;;;;5070442;28;20478;-70
2022/05/29 12:04:14;;;;;;;2.40;1.57;;;14.80;96.50;;;;;;5065051;28;20482;-71
2022/05/29 12:06:45;;;;;;;2.53;1.63;;;14.70;97.00;;;;;;5051137;28;20483;-68
2022/05/29 12:09:18;;;;;;;1.90;1.70;;;14.80;96.10;;;;;;5049534;28;20470;-69
2022/05/29 12:11:49;;;;;;;2.77;1.77;;;14.60;96.40;;;;;;5049766;28;20483;-68
2022/05/29 12:14:22;;;;;;;1.83;1.27;;;14.40;97.60;;;;;;5050357;28;20463;-68
2022/05/29 12:16:52;;;;;;;3.20;1.80;;;14.40;96.20;;;;;;5049667;28;20455;-69
2022/05/29 12:19:24;;;;;;;3.47;1.90;;;14.40;97.20;;;;;;5049970;28;20455;-69
2022/05/29 12:21:55;;;;;;;4.50;1.70;;;14.70;98.10;;;;;;5060859;28;20449;-69
2022/05/29 12:24:26;;;;;;;3.63;1.53;;;15.20;98.40;;;;;;5063580;28;20459;-69
2022/05/29 12:27:00;;;;;;;3.00;1.70;;;15.80;98.80;;;;;;5049934;28;20459;-69
2022/05/29 12:29:31;;;;;;;4.00;1.90;;;16.30;96.70;;;;;;5066450;28;20454;-68
2022/05/29 12:32:01;;;;;;;2.70;1.47;;;16.50;95.70;;;;;;5068993;28;20482;-69
2022/05/29 12:34:33;;;;;;;4.87;2.50;;;16.50;95.30;;;;;;5049814;28;20455;-70
2022/05/29 12:37:27;;;;;;;3.43;2.03;;;16.40;96.50;;;;;;5050174;28;20885;-70
2022/05/29 12:40:29;;;;;;;3.70;2.70;;;16.20;97.40;;;;;;5035760;28;20848;-70
2022/05/29 12:43:34;;;;;;;4.67;2.63;;;15.90;97.40;;;;;;5049280;28;20475;-70
2022/05/29 12:46:13;;;;;;;4.03;2.70;;;15.70;97.50;;;;;;5049217;28;20797;-70
2022/05/29 12:49:17;;;;;;;6.40;2.90;;;15.30;97.90;;;;;;5048061;28;20538;-70
2022/05/29 12:52:12;;;;;;;3.57;1.90;;;15.10;98.80;;;;;;5049270;28;20554;-69
2022/05/29 12:55:12;;;;;;;2.13;1.67;;;14.70;98.60;;;;;;5049515;28;20486;-70
2022/05/29 12:58:09;;;;;;;5.77;2.10;;;14.40;98.30;;;;;;5053438;28;20463;-69
2022/05/29 13:01:12;;;;;;;3.57;2.07;;;14.20;98.50;;;;;;5046868;28;21045;-70
2022/05/29 13:04:24;;;;;;;3.20;2.30;;;14.10;97.70;;;;;;5035669;28;20486;-69
2022/05/29 13:07:21;;;;;;;2.63;2.07;;;14.00;98.70;;;;;;5006610;28;20491;-68
2022/05/29 13:10:14;;;;;;;5.30;2.27;;;14.10;99.70;;;;;;4992457;28;20566;-69
2022/05/29 13:12:48;;;;;;;3.07;2.20;;;14.10;98.80;;;;;;5061162;28;20482;-70
2022/05/29 13:15:28;;;;;;;2.47;1.70;;;14.30;99.90;;;;;;5068025;28;20465;-71
2022/05/29 13:18:02;;;;;;;3.17;2.20;;;14.30;98.90;;;;;;5068797;28;20454;-70
2022/05/29 13:20:29;;;;;;;2.20;1.97;;;14.30;99.00;;;;;;5069647;28;20455;-69
2022/05/29 13:23:00;;;;;;;3.07;2.03;;;14.20;99.70;;;;;;5068809;28;20470;-70
2022/05/29 13:25:30;;;;;;;2.60;1.90;;;14.20;99.60;;;;;;5069431;28;20882;-69
2022/05/29 13:27:59;;;;;;;2.07;1.70;;;14.10;99.80;;;;;;5068847;28;20450;-69
2022/05/29 13:31:08;;;;;;;2.47;2.27;;;13.90;99.50;;;;;;5068844;28;20454;-69
2022/05/29 13:34:21;;;;;;;3.00;1.97;;;13.90;99.90;;;;;;5069754;28;20989;-70
2022/05/29 13:37:07;;;;;;;5.30;2.40;;;14.30;99.90;;;;;;5070334;28;20457;-70
2022/05/29 13:39:53;;;;;;;3.97;2.40;;;14.50;99.20;;;;;;5068553;28;20462;-69
2022/05/29 13:42:26;;;;;;;3.50;2.23;;;14.40;98.60;;;;;;5068485;28;20485;-69
2022/05/29 13:44:53;;;;;;;2.53;1.97;;;14.50;99.20;;;;;;5084380;22;21120;-90
2022/05/29 13:47:36;;;;;;;3.13;1.93;;;14.80;97.90;;;;;;5057012;28;20462;-90
2022/05/29 13:50:15;;;;;;;4.07;1.80;;;14.70;97.70;;;;;;5057165;28;20447;-90
2022/05/29 13:52:49;;;;;;;2.00;1.80;;;14.50;97.70;;;;;;5058167;28;20483;-90
2022/05/29 13:55:24;;;;;;;2.13;1.70;;;14.40;97.80;;;;;;5059785;28;20486;-90
2022/05/29 14:04:03;;;;;;;2.40;1.70;;;15.30;98.30;;;;;;5058100;28;20454;-90
2022/05/29 14:06:32;;;;;;;2.93;2.10;;;15.50;97.30;;;;;;5060750;28;20460;-91
2022/05/29 14:09:23;;;;;;;2.20;1.40;;;15.50;97.40;;;;;;5061911;28;20456;-90
2022/05/29 14:12:00;;;;;;;2.63;1.80;;;15.20;96.90;;;;;;5042008;28;20451;-90
2022/05/29 14:14:47;;;;;;;3.03;1.90;;;15.00;96.50;;;;;;5072821;28;20509;-91
2022/05/29 14:17:23;;;;;;;3.63;1.67;;;14.90;94.70;;;;;;5071290;28;20459;-91
2022/05/29 14:20:08;;;;;;;2.80;1.70;;;14.70;95.10;;;;;;5066778;28;20451;-90
2022/05/29 14:23:17;;;;;;;3.07;1.77;;;14.50;94.70;;;;;;5060383;28;20444;-89
2022/05/29 14:26:19;;;;;;;2.63;1.70;;;14.40;95.00;;;;;;5073427;28;20534;-91
2022/05/29 14:29:02;;;;;;;2.77;1.73;;;14.20;95.30;;;;;;5063122;28;20461;-91